sensor_id;sensor_type;location;lat;lon;timestamp;temperature;humidity
7658;DHT22;8462;53.156;8.220;2023-08-30T00:02:24;18.20;99.90
7658;DHT22;8462;53.156;8.220;2023-08-30T00:04:58;18.20;99.90
7658;DHT22;8462;53.156;8.220;2023-08-30T00:07:25;18.20;99.90
7658;DHT22;8462;53.156;8.220;2023-08-30T00:09:52;18.20;99.90
7658;DHT22;8462;53.156;8.220;2023-08-30T00:12:19;18.20;99.90
7658;DHT22;8462;53.156;8.220;2023-08-30T00:14:47;18.20;99.90
7658;DHT22;8462;53.156;8.220;2023-08-30T00:17:14;18.20;99.90
7658;DHT22;8462;53.156;8.220;2023-08-30T00:19:41;18.20;99.90
7658;DHT22;8462;53.156;8.220;2023-08-30T00:22:09;18.30;99.90
7658;DHT22;8462;53.156;8.220;2023-08-30T00:24:37;18.30;99.90
7658;DHT22;8462;53.156;8.220;2023-08-30T00:27:04;18.30;99.90
7658;DHT22;8462;53.156;8.220;2023-08-30T00:29:31;18.30;99.90
7658;DHT22;8462;53.156;8.220;2023-08-30T00:31:59;18.30;99.90
7658;DHT22;8462;53.156;8.220;2023-08-30T00:34:26;18.40;99.90
7658;DHT22;8462;53.156;8.220;2023-08-30T00:36:53;18.40;99.90
7658;DHT22;8462;53.156;8.220;2023-08-30T00:39:21;18.40;99.90
7658;DHT22;8462;53.156;8.220;2023-08-30T00:41:48;18.50;99.90
7658;DHT22;8462;53.156;8.220;2023-08-30T00:44:14;18.50;99.90
7658;DHT22;8462;53.156;8.220;2023-08-30T00:46:41;18.50;99.90
7658;DHT22;8462;53.156;8.220;2023-08-30T00:49:08;18.50;99.90
7658;DHT22;8462;53.156;8.220;2023-08-30T00:51:36;18.50;99.90
7658;DHT22;8462;53.156;8.220;2023-08-30T00:54:03;18.50;99.90
7658;DHT22;8462;53.156;8.220;2023-08-30T00:56:32;18.60;99.90
7658;DHT22;8462;53.156;8.220;2023-08-30T00:59:01;18.50;99.90
7658;DHT22;8462;53.156;8.220;2023-08-30T01:01:28;18.50;99.90
7658;DHT22;8462;53.156;8.220;2023-08-30T01:03:55;18.50;99.90
7658;DHT22;8462;53.156;8.220;2023-08-30T01:06:22;18.50;99.90
7658;DHT22;8462;53.156;8.220;2023-08-30T01:08:49;18.50;99.90
7658;DHT22;8462;53.156;8.220;2023-08-30T01:11:22;18.50;99.90
7658;DHT22;8462;53.156;8.220;2023-08-30T01:13:56;18.50;99.90
7658;DHT22;8462;53.156;8.220;2023-08-30T01:16:27;18.50;99.90
7658;DHT22;8462;53.156;8.220;2023-08-30T01:18:55;18.40;99.90
7658;DHT22;8462;53.156;8.220;2023-08-30T01:21:30;18.40;99.90
7658;DHT22;8462;53.156;8.220;2023-08-30T01:24:00;18.40;99.90
7658;DHT22;8462;53.156;8.220;2023-08-30T01:26:39;18.30;99.90
7658;DHT22;8462;53.156;8.220;2023-08-30T01:29:11;18.30;99.90
7658;DHT22;8462;53.156;8.220;2023-08-30T01:31:40;18.30;99.90
7658;DHT22;8462;53.156;8.220;2023-08-30T01:34:08;18.30;99.90
7658;DHT22;8462;53.156;8.220;2023-08-30T01:36:36;18.20;99.90
7658;DHT22;8462;53.156;8.220;2023-08-30T01:39:03;18.10;99.90
7658;DHT22;8462;53.156;8.220;2023-08-30T01:41:31;18.10;99.90
7658;DHT22;8462;53.156;8.220;2023-08-30T01:43:59;18.10;99.90
7658;DHT22;8462;53.156;8.220;2023-08-30T01:46:31;18.00;99.90
7658;DHT22;8462;53.156;8.220;2023-08-30T01:49:02;18.00;99.90
7658;DHT22;8462;53.156;8.220;2023-08-30T01:51:30;18.00;99.90
7658;DHT22;8462;53.156;8.220;2023-08-30T01:53:58;17.90;99.90
7658;DHT22;8462;53.156;8.220;2023-08-30T01:56:25;17.90;99.90
7658;DHT22;8462;53.156;8.220;2023-08-30T01:58:52;17.80;99.90
7658;DHT22;8462;53.156;8.220;2023-08-30T02:01:18;17.80;99.90
7658;DHT22;8462;53.156;8.220;2023-08-30T02:03:47;17.80;99.90
7658;DHT22;8462;53.156;8.220;2023-08-30T02:06:17;17.70;99.90
7658;DHT22;8462;53.156;8.220;2023-08-30T02:08:50;17.70;99.90
7658;DHT22;8462;53.156;8.220;2023-08-30T02:11:22;17.70;99.90
7658;DHT22;8462;53.156;8.220;2023-08-30T02:13:50;17.70;99.90
7658;DHT22;8462;53.156;8.220;2023-08-30T02:16:20;17.60;99.90
7658;DHT22;8462;53.156;8.220;2023-08-30T02:18:50;17.50;99.90
7658;DHT22;8462;53.156;8.220;2023-08-30T02:21:17;17.50;99.90
7658;DHT22;8462;53.156;8.220;2023-08-30T02:23:49;17.50;99.90
7658;DHT22;8462;53.156;8.220;2023-08-30T02:26:18;17.40;99.90
7658;DHT22;8462;53.156;8.220;2023-08-30T02:28:46;17.40;99.90
7658;DHT22;8462;53.156;8.220;2023-08-30T02:31:13;17.40;99.90
7658;DHT22;8462;53.156;8.220;2023-08-30T02:33:40;17.40;99.90
7658;DHT22;8462;53.156;8.220;2023-08-30T02:36:08;17.30;99.90
7658;DHT22;8462;53.156;8.220;2023-08-30T02:38:36;17.30;99.90
7658;DHT22;8462;53.156;8.220;2023-08-30T02:41:03;17.30;99.90
7658;DHT22;8462;53.156;8.220;2023-08-30T02:43:30;17.30;99.90
7658;DHT22;8462;53.156;8.220;2023-08-30T02:45:57;17.30;99.90
7658;DHT22;8462;53.156;8.220;2023-08-30T02:48:24;17.30;99.90
7658;DHT22;8462;53.156;8.220;2023-08-30T02:50:51;17.20;99.90
7658;DHT22;8462;53.156;8.220;2023-08-30T02:53:19;17.20;99.90
7658;DHT22;8462;53.156;8.220;2023-08-30T02:55:46;17.20;99.90
7658;DHT22;8462;53.156;8.220;2023-08-30T02:58:13;17.20;99.90
7658;DHT22;8462;53.156;8.220;2023-08-30T03:00:40;17.20;99.90
7658;DHT22;8462;53.156;8.220;2023-08-30T03:03:09;17.20;99.90
7658;DHT22;8462;53.156;8.220;2023-08-30T03:05:36;17.10;99.90
7658;DHT22;8462;53.156;8.220;2023-08-30T03:08:04;17.10;99.90
7658;DHT22;8462;53.156;8.220;2023-08-30T03:10:33;17.10;99.90
7658;DHT22;8462;53.156;8.220;2023-08-30T03:13:00;17.10;99.90
7658;DHT22;8462;53.156;8.220;2023-08-30T03:15:27;17.00;99.90
7658;DHT22;8462;53.156;8.220;2023-08-30T03:17:54;17.00;99.90
7658;DHT22;8462;53.156;8.220;2023-08-30T03:20:21;16.90;99.90
7658;DHT22;8462;53.156;8.220;2023-08-30T03:22:48;16.90;99.90
7658;DHT22;8462;53.156;8.220;2023-08-30T03:25:15;16.90;99.90
7658;DHT22;8462;53.156;8.220;2023-08-30T03:27:44;16.90;99.90
7658;DHT22;8462;53.156;8.220;2023-08-30T03:30:12;16.90;99.90
7658;DHT22;8462;53.156;8.220;2023-08-30T03:32:39;16.90;99.90
7658;DHT22;8462;53.156;8.220;2023-08-30T03:35:06;16.90;99.90
7658;DHT22;8462;53.156;8.220;2023-08-30T03:37:33;16.90;99.90
7658;DHT22;8462;53.156;8.220;2023-08-30T03:40:01;16.80;99.90
7658;DHT22;8462;53.156;8.220;2023-08-30T03:42:30;16.80;99.90
7658;DHT22;8462;53.156;8.220;2023-08-30T03:44:58;16.80;99.90
7658;DHT22;8462;53.156;8.220;2023-08-30T03:47:25;16.80;99.90
7658;DHT22;8462;53.156;8.220;2023-08-30T03:49:52;16.80;99.90
7658;DHT22;8462;53.156;8.220;2023-08-30T03:52:19;16.70;99.90
7658;DHT22;8462;53.156;8.220;2023-08-30T03:54:46;16.70;99.90
7658;DHT22;8462;53.156;8.220;2023-08-30T03:57:13;16.70;99.90
7658;DHT22;8462;53.156;8.220;2023-08-30T03:59:40;16.70;99.90
7658;DHT22;8462;53.156;8.220;2023-08-30T04:02:08;16.60;99.90
7658;DHT22;8462;53.156;8.220;2023-08-30T04:04:35;16.60;99.90
7658;DHT22;8462;53.156;8.220;2023-08-30T04:07:02;16.60;99.90
7658;DHT22;8462;53.156;8.220;2023-08-30T04:09:29;16.50;99.90
7658;DHT22;8462;53.156;8.220;2023-08-30T04:11:56;16.50;99.90
7658;DHT22;8462;53.156;8.220;2023-08-30T04:14:23;16.50;99.90
7658;DHT22;8462;53.156;8.220;2023-08-30T04:16:50;16.40;99.90
7658;DHT22;8462;53.156;8.220;2023-08-30T04:19:19;16.40;99.90
7658;DHT22;8462;53.156;8.220;2023-08-30T04:21:45;16.40;99.90
7658;DHT22;8462;53.156;8.220;2023-08-30T04:24:12;16.40;99.90
7658;DHT22;8462;53.156;8.220;2023-08-30T04:26:40;16.40;99.90
7658;DHT22;8462;53.156;8.220;2023-08-30T04:29:07;16.40;99.90
7658;DHT22;8462;53.156;8.220;2023-08-30T04:31:34;16.40;99.90
7658;DHT22;8462;53.156;8.220;2023-08-30T04:34:01;16.40;99.90
7658;DHT22;8462;53.156;8.220;2023-08-30T04:36:29;16.40;99.90
7658;DHT22;8462;53.156;8.220;2023-08-30T04:38:56;16.30;99.90
7658;DHT22;8462;53.156;8.220;2023-08-30T04:41:23;16.30;99.90
7658;DHT22;8462;53.156;8.220;2023-08-30T04:43:50;16.30;99.90
7658;DHT22;8462;53.156;8.220;2023-08-30T04:46:17;16.30;99.90
7658;DHT22;8462;53.156;8.220;2023-08-30T04:48:44;16.30;99.90
7658;DHT22;8462;53.156;8.220;2023-08-30T04:51:11;16.30;99.90
7658;DHT22;8462;53.156;8.220;2023-08-30T04:53:39;16.30;99.90
7658;DHT22;8462;53.156;8.220;2023-08-30T04:56:12;16.30;99.90
7658;DHT22;8462;53.156;8.220;2023-08-30T04:58:39;16.30;99.90
7658;DHT22;8462;53.156;8.220;2023-08-30T05:01:08;16.40;99.90
7658;DHT22;8462;53.156;8.220;2023-08-30T05:03:38;16.40;99.90
7658;DHT22;8462;53.156;8.220;2023-08-30T05:06:08;16.40;99.90
7658;DHT22;8462;53.156;8.220;2023-08-30T05:08:35;16.40;99.90
7658;DHT22;8462;53.156;8.220;2023-08-30T05:11:03;16.40;99.90
7658;DHT22;8462;53.156;8.220;2023-08-30T05:13:30;16.40;99.90
7658;DHT22;8462;53.156;8.220;2023-08-30T05:15:58;16.40;99.90
7658;DHT22;8462;53.156;8.220;2023-08-30T05:18:25;16.50;99.90
7658;DHT22;8462;53.156;8.220;2023-08-30T05:20:52;16.50;99.90
7658;DHT22;8462;53.156;8.220;2023-08-30T05:23:19;16.50;99.90
7658;DHT22;8462;53.156;8.220;2023-08-30T05:25:46;16.60;99.90
7658;DHT22;8462;53.156;8.220;2023-08-30T05:28:16;16.70;99.90
7658;DHT22;8462;53.156;8.220;2023-08-30T05:30:44;16.80;99.90
7658;DHT22;8462;53.156;8.220;2023-08-30T05:33:25;16.90;99.90
7658;DHT22;8462;53.156;8.220;2023-08-30T05:36:12;16.90;99.90
7658;DHT22;8462;53.156;8.220;2023-08-30T05:38:59;17.10;99.90
7658;DHT22;8462;53.156;8.220;2023-08-30T05:41:33;17.10;99.90
7658;DHT22;8462;53.156;8.220;2023-08-30T05:44:02;17.20;99.90
7658;DHT22;8462;53.156;8.220;2023-08-30T05:46:29;17.30;99.90
7658;DHT22;8462;53.156;8.220;2023-08-30T05:48:56;17.40;99.90
7658;DHT22;8462;53.156;8.220;2023-08-30T05:51:23;17.40;99.90
7658;DHT22;8462;53.156;8.220;2023-08-30T05:53:50;17.60;99.90
7658;DHT22;8462;53.156;8.220;2023-08-30T05:56:17;17.70;99.90
7658;DHT22;8462;53.156;8.220;2023-08-30T05:58:44;17.90;99.90
7658;DHT22;8462;53.156;8.220;2023-08-30T06:01:13;17.90;99.90
7658;DHT22;8462;53.156;8.220;2023-08-30T06:03:40;18.00;99.90
7658;DHT22;8462;53.156;8.220;2023-08-30T06:06:07;18.10;99.90
7658;DHT22;8462;53.156;8.220;2023-08-30T06:08:34;18.30;99.90
7658;DHT22;8462;53.156;8.220;2023-08-30T06:11:01;18.50;99.90
7658;DHT22;8462;53.156;8.220;2023-08-30T06:13:28;18.70;99.90
7658;DHT22;8462;53.156;8.220;2023-08-30T06:15:55;18.80;99.50
7658;DHT22;8462;53.156;8.220;2023-08-30T06:18:23;18.80;98.90
7658;DHT22;8462;53.156;8.220;2023-08-30T06:20:50;18.90;99.00
7658;DHT22;8462;53.156;8.220;2023-08-30T06:23:18;19.00;98.90
7658;DHT22;8462;53.156;8.220;2023-08-30T06:25:52;19.20;98.60
7658;DHT22;8462;53.156;8.220;2023-08-30T06:28:20;19.20;98.00
7658;DHT22;8462;53.156;8.220;2023-08-30T06:30:48;19.40;97.90
7658;DHT22;8462;53.156;8.220;2023-08-30T06:33:18;19.50;97.80
7658;DHT22;8462;53.156;8.220;2023-08-30T06:35:49;19.70;97.10
7658;DHT22;8462;53.156;8.220;2023-08-30T06:38:18;20.00;96.60
7658;DHT22;8462;53.156;8.220;2023-08-30T06:40:46;20.00;96.10
7658;DHT22;8462;53.156;8.220;2023-08-30T06:43:13;20.10;96.20
7658;DHT22;8462;53.156;8.220;2023-08-30T06:45:41;20.20;96.10
7658;DHT22;8462;53.156;8.220;2023-08-30T06:48:08;20.30;95.80
7658;DHT22;8462;53.156;8.220;2023-08-30T06:50:35;20.60;96.00
7658;DHT22;8462;53.156;8.220;2023-08-30T06:53:04;20.80;95.20
7658;DHT22;8462;53.156;8.220;2023-08-30T06:55:31;20.90;94.60
7658;DHT22;8462;53.156;8.220;2023-08-30T06:57:59;21.20;94.50
7658;DHT22;8462;53.156;8.220;2023-08-30T07:00:26;21.20;93.70
7658;DHT22;8462;53.156;8.220;2023-08-30T07:02:53;21.30;94.00
7658;DHT22;8462;53.156;8.220;2023-08-30T07:05:20;21.30;94.10
7658;DHT22;8462;53.156;8.220;2023-08-30T07:07:46;21.50;93.50
7658;DHT22;8462;53.156;8.220;2023-08-30T07:10:15;21.70;92.90
7658;DHT22;8462;53.156;8.220;2023-08-30T07:12:42;21.80;93.10
7658;DHT22;8462;53.156;8.220;2023-08-30T07:15:13;22.00;92.20
7658;DHT22;8462;53.156;8.220;2023-08-30T07:17:42;22.10;91.80
7658;DHT22;8462;53.156;8.220;2023-08-30T07:20:10;22.20;91.70
7658;DHT22;8462;53.156;8.220;2023-08-30T07:22:37;22.50;91.80
7658;DHT22;8462;53.156;8.220;2023-08-30T07:25:04;22.70;90.80
7658;DHT22;8462;53.156;8.220;2023-08-30T07:27:33;23.00;91.10
7658;DHT22;8462;53.156;8.220;2023-08-30T07:30:00;23.20;89.30
7658;DHT22;8462;53.156;8.220;2023-08-30T07:32:27;23.20;88.20
7658;DHT22;8462;53.156;8.220;2023-08-30T07:34:54;23.00;88.20
7658;DHT22;8462;53.156;8.220;2023-08-30T07:37:22;22.70;89.10
7658;DHT22;8462;53.156;8.220;2023-08-30T07:39:50;22.50;90.30
7658;DHT22;8462;53.156;8.220;2023-08-30T07:42:17;22.20;90.60
7658;DHT22;8462;53.156;8.220;2023-08-30T07:44:45;22.00;91.10
7658;DHT22;8462;53.156;8.220;2023-08-30T07:47:12;21.90;91.10
7658;DHT22;8462;53.156;8.220;2023-08-30T07:49:39;21.80;91.10
7658;DHT22;8462;53.156;8.220;2023-08-30T07:52:07;21.70;91.00
7658;DHT22;8462;53.156;8.220;2023-08-30T07:54:37;21.60;91.10
7658;DHT22;8462;53.156;8.220;2023-08-30T07:57:04;21.70;91.30
7658;DHT22;8462;53.156;8.220;2023-08-30T07:59:33;21.70;91.00
7658;DHT22;8462;53.156;8.220;2023-08-30T08:02:02;21.60;91.60
7658;DHT22;8462;53.156;8.220;2023-08-30T08:04:30;21.70;91.40
7658;DHT22;8462;53.156;8.220;2023-08-30T08:06:57;21.60;91.10
7658;DHT22;8462;53.156;8.220;2023-08-30T08:09:26;21.60;91.20
7658;DHT22;8462;53.156;8.220;2023-08-30T08:11:53;21.60;91.20
7658;DHT22;8462;53.156;8.220;2023-08-30T08:14:21;21.60;91.30
7658;DHT22;8462;53.156;8.220;2023-08-30T08:16:48;21.70;91.30
7658;DHT22;8462;53.156;8.220;2023-08-30T08:19:17;21.70;90.90
7658;DHT22;8462;53.156;8.220;2023-08-30T08:21:45;21.70;90.90
7658;DHT22;8462;53.156;8.220;2023-08-30T08:24:13;21.80;90.60
7658;DHT22;8462;53.156;8.220;2023-08-30T08:26:40;21.80;90.50
7658;DHT22;8462;53.156;8.220;2023-08-30T08:29:07;21.80;90.10
7658;DHT22;8462;53.156;8.220;2023-08-30T08:31:34;22.00;90.60
7658;DHT22;8462;53.156;8.220;2023-08-30T08:34:09;22.00;90.40
7658;DHT22;8462;53.156;8.220;2023-08-30T08:36:38;22.00;90.10
7658;DHT22;8462;53.156;8.220;2023-08-30T08:39:06;22.10;90.20
7658;DHT22;8462;53.156;8.220;2023-08-30T08:41:38;22.20;90.00
7658;DHT22;8462;53.156;8.220;2023-08-30T08:44:06;22.30;90.10
7658;DHT22;8462;53.156;8.220;2023-08-30T08:46:35;22.40;90.00
7658;DHT22;8462;53.156;8.220;2023-08-30T08:49:07;22.60;90.00
7658;DHT22;8462;53.156;8.220;2023-08-30T08:51:35;22.70;89.00
7658;DHT22;8462;53.156;8.220;2023-08-30T08:54:05;22.80;87.50
7658;DHT22;8462;53.156;8.220;2023-08-30T08:56:33;23.00;86.60
7658;DHT22;8462;53.156;8.220;2023-08-30T08:59:01;23.10;86.30
7658;DHT22;8462;53.156;8.220;2023-08-30T09:01:29;23.20;85.00
7658;DHT22;8462;53.156;8.220;2023-08-30T09:03:57;23.20;84.90
7658;DHT22;8462;53.156;8.220;2023-08-30T09:06:24;23.20;85.70
7658;DHT22;8462;53.156;8.220;2023-08-30T09:08:51;23.20;84.30
7658;DHT22;8462;53.156;8.220;2023-08-30T09:11:20;23.30;84.40
7658;DHT22;8462;53.156;8.220;2023-08-30T09:13:47;23.40;84.00
7658;DHT22;8462;53.156;8.220;2023-08-30T09:16:14;23.50;81.80
7658;DHT22;8462;53.156;8.220;2023-08-30T09:18:41;23.70;78.70
7658;DHT22;8462;53.156;8.220;2023-08-30T09:21:09;23.70;78.30
7658;DHT22;8462;53.156;8.220;2023-08-30T09:23:37;23.90;77.80
7658;DHT22;8462;53.156;8.220;2023-08-30T09:26:04;23.90;75.10
7658;DHT22;8462;53.156;8.220;2023-08-30T09:28:41;23.80;75.50
7658;DHT22;8462;53.156;8.220;2023-08-30T09:31:16;23.90;76.00
7658;DHT22;8462;53.156;8.220;2023-08-30T09:33:45;24.20;75.90
7658;DHT22;8462;53.156;8.220;2023-08-30T09:36:13;24.20;74.50
7658;DHT22;8462;53.156;8.220;2023-08-30T09:38:40;24.40;73.80
7658;DHT22;8462;53.156;8.220;2023-08-30T09:41:07;24.30;73.70
7658;DHT22;8462;53.156;8.220;2023-08-30T09:43:42;24.30;73.10
7658;DHT22;8462;53.156;8.220;2023-08-30T09:46:09;24.40;74.10
7658;DHT22;8462;53.156;8.220;2023-08-30T09:48:37;24.50;73.40
7658;DHT22;8462;53.156;8.220;2023-08-30T09:51:08;24.60;74.10
7658;DHT22;8462;53.156;8.220;2023-08-30T09:53:40;24.50;74.20
7658;DHT22;8462;53.156;8.220;2023-08-30T09:56:11;24.60;73.90
7658;DHT22;8462;53.156;8.220;2023-08-30T09:58:41;24.60;74.20
7658;DHT22;8462;53.156;8.220;2023-08-30T10:01:09;24.80;74.50
7658;DHT22;8462;53.156;8.220;2023-08-30T10:03:36;25.00;73.40
7658;DHT22;8462;53.156;8.220;2023-08-30T10:06:03;25.10;72.10
7658;DHT22;8462;53.156;8.220;2023-08-30T10:08:33;25.10;72.00
7658;DHT22;8462;53.156;8.220;2023-08-30T10:11:02;25.10;71.60
7658;DHT22;8462;53.156;8.220;2023-08-30T10:13:31;25.10;72.10
7658;DHT22;8462;53.156;8.220;2023-08-30T10:16:02;25.00;72.40
7658;DHT22;8462;53.156;8.220;2023-08-30T10:18:32;25.00;72.70
7658;DHT22;8462;53.156;8.220;2023-08-30T10:21:02;24.90;72.20
7658;DHT22;8462;53.156;8.220;2023-08-30T10:23:33;25.00;72.90
7658;DHT22;8462;53.156;8.220;2023-08-30T10:26:02;25.20;73.00
7658;DHT22;8462;53.156;8.220;2023-08-30T10:28:31;25.40;72.70
7658;DHT22;8462;53.156;8.220;2023-08-30T10:30:58;25.40;72.50
7658;DHT22;8462;53.156;8.220;2023-08-30T10:33:27;25.40;71.80
7658;DHT22;8462;53.156;8.220;2023-08-30T10:35:54;25.30;71.90
7658;DHT22;8462;53.156;8.220;2023-08-30T10:38:31;25.30;72.20
7658;DHT22;8462;53.156;8.220;2023-08-30T10:41:06;25.20;72.50
7658;DHT22;8462;53.156;8.220;2023-08-30T10:43:35;25.20;72.50
7658;DHT22;8462;53.156;8.220;2023-08-30T10:46:03;25.20;72.30
7658;DHT22;8462;53.156;8.220;2023-08-30T10:48:40;25.10;73.00
7658;DHT22;8462;53.156;8.220;2023-08-30T10:51:20;24.80;72.90
7658;DHT22;8462;53.156;8.220;2023-08-30T10:53:56;24.60;73.10
7658;DHT22;8462;53.156;8.220;2023-08-30T10:56:28;24.40;73.30
7658;DHT22;8462;53.156;8.220;2023-08-30T10:58:55;24.20;73.50
7658;DHT22;8462;53.156;8.220;2023-08-30T11:01:23;24.00;74.20
7658;DHT22;8462;53.156;8.220;2023-08-30T11:03:53;23.90;74.80
7658;DHT22;8462;53.156;8.220;2023-08-30T11:06:21;23.80;75.60
7658;DHT22;8462;53.156;8.220;2023-08-30T11:08:48;23.70;76.10
7658;DHT22;8462;53.156;8.220;2023-08-30T11:11:16;23.70;76.30
7658;DHT22;8462;53.156;8.220;2023-08-30T11:13:43;23.50;76.20
7658;DHT22;8462;53.156;8.220;2023-08-30T11:16:10;23.30;76.80
7658;DHT22;8462;53.156;8.220;2023-08-30T11:18:37;23.20;77.70
7658;DHT22;8462;53.156;8.220;2023-08-30T11:21:08;23.00;78.70
7658;DHT22;8462;53.156;8.220;2023-08-30T11:23:37;22.90;79.00
7658;DHT22;8462;53.156;8.220;2023-08-30T11:26:04;22.80;79.70
7658;DHT22;8462;53.156;8.220;2023-08-30T11:28:31;22.60;80.30
7658;DHT22;8462;53.156;8.220;2023-08-30T11:30:58;22.60;80.90
7658;DHT22;8462;53.156;8.220;2023-08-30T11:33:25;22.60;80.90
7658;DHT22;8462;53.156;8.220;2023-08-30T11:35:52;22.60;81.00
7658;DHT22;8462;53.156;8.220;2023-08-30T11:38:21;22.70;81.80
7658;DHT22;8462;53.156;8.220;2023-08-30T11:40:51;22.80;81.80
7658;DHT22;8462;53.156;8.220;2023-08-30T11:43:18;23.00;81.70
7658;DHT22;8462;53.156;8.220;2023-08-30T11:45:45;23.10;81.10
7658;DHT22;8462;53.156;8.220;2023-08-30T11:48:12;23.20;82.00
7658;DHT22;8462;53.156;8.220;2023-08-30T11:50:42;23.20;80.80
7658;DHT22;8462;53.156;8.220;2023-08-30T11:53:09;23.20;80.70
7658;DHT22;8462;53.156;8.220;2023-08-30T11:55:38;23.10;80.50
7658;DHT22;8462;53.156;8.220;2023-08-30T11:58:05;23.00;80.40
7658;DHT22;8462;53.156;8.220;2023-08-30T12:00:33;23.00;80.90
7658;DHT22;8462;53.156;8.220;2023-08-30T12:03:01;23.00;80.60
7658;DHT22;8462;53.156;8.220;2023-08-30T12:05:28;22.90;80.60
7658;DHT22;8462;53.156;8.220;2023-08-30T12:07:59;22.80;80.60
7658;DHT22;8462;53.156;8.220;2023-08-30T12:10:28;22.70;81.40
7658;DHT22;8462;53.156;8.220;2023-08-30T12:12:58;22.60;81.30
7658;DHT22;8462;53.156;8.220;2023-08-30T12:15:25;22.60;82.00
7658;DHT22;8462;53.156;8.220;2023-08-30T12:17:54;22.60;82.00
7658;DHT22;8462;53.156;8.220;2023-08-30T12:20:21;22.50;82.30
7658;DHT22;8462;53.156;8.220;2023-08-30T12:22:49;22.50;82.70
7658;DHT22;8462;53.156;8.220;2023-08-30T12:25:18;22.50;83.10
7658;DHT22;8462;53.156;8.220;2023-08-30T12:27:46;22.40;84.10
7658;DHT22;8462;53.156;8.220;2023-08-30T12:30:15;22.30;84.20
7658;DHT22;8462;53.156;8.220;2023-08-30T12:32:43;22.30;84.60
7658;DHT22;8462;53.156;8.220;2023-08-30T12:35:10;22.20;84.90
7658;DHT22;8462;53.156;8.220;2023-08-30T12:37:37;22.20;85.00
7658;DHT22;8462;53.156;8.220;2023-08-30T12:40:05;22.10;85.30
7658;DHT22;8462;53.156;8.220;2023-08-30T12:42:33;22.10;85.30
7658;DHT22;8462;53.156;8.220;2023-08-30T12:45:00;22.10;85.50
7658;DHT22;8462;53.156;8.220;2023-08-30T12:47:30;21.90;86.60
7658;DHT22;8462;53.156;8.220;2023-08-30T12:49:57;21.90;88.10
7658;DHT22;8462;53.156;8.220;2023-08-30T12:52:24;21.80;90.00
7658;DHT22;8462;53.156;8.220;2023-08-30T12:54:50;21.80;91.10
7658;DHT22;8462;53.156;8.220;2023-08-30T12:57:19;21.70;91.80
7658;DHT22;8462;53.156;8.220;2023-08-30T12:59:47;21.40;92.90
7658;DHT22;8462;53.156;8.220;2023-08-30T13:02:14;21.30;93.50
7658;DHT22;8462;53.156;8.220;2023-08-30T13:04:42;21.10;94.40
7658;DHT22;8462;53.156;8.220;2023-08-30T13:07:09;21.00;94.90
7658;DHT22;8462;53.156;8.220;2023-08-30T13:09:36;21.00;95.70
7658;DHT22;8462;53.156;8.220;2023-08-30T13:12:04;20.90;96.10
7658;DHT22;8462;53.156;8.220;2023-08-30T13:14:31;20.90;96.40
7658;DHT22;8462;53.156;8.220;2023-08-30T13:16:58;20.80;96.70
7658;DHT22;8462;53.156;8.220;2023-08-30T13:19:25;20.60;97.10
7658;DHT22;8462;53.156;8.220;2023-08-30T13:21:53;20.40;97.60
7658;DHT22;8462;53.156;8.220;2023-08-30T13:24:20;20.20;98.30
7658;DHT22;8462;53.156;8.220;2023-08-30T13:26:47;20.20;99.00
7658;DHT22;8462;53.156;8.220;2023-08-30T13:29:14;20.20;98.90
7658;DHT22;8462;53.156;8.220;2023-08-30T13:31:42;20.30;99.10
7658;DHT22;8462;53.156;8.220;2023-08-30T13:34:09;20.30;99.30
7658;DHT22;8462;53.156;8.220;2023-08-30T13:36:36;20.20;99.70
7658;DHT22;8462;53.156;8.220;2023-08-30T13:39:06;20.30;99.70
7658;DHT22;8462;53.156;8.220;2023-08-30T13:41:33;20.30;99.80
7658;DHT22;8462;53.156;8.220;2023-08-30T13:44:01;20.30;99.90
7658;DHT22;8462;53.156;8.220;2023-08-30T13:46:32;20.30;99.90
7658;DHT22;8462;53.156;8.220;2023-08-30T13:48:59;20.20;99.90
7658;DHT22;8462;53.156;8.220;2023-08-30T13:51:26;20.20;99.90
7658;DHT22;8462;53.156;8.220;2023-08-30T13:53:53;20.20;99.90
7658;DHT22;8462;53.156;8.220;2023-08-30T13:56:22;20.10;99.90
7658;DHT22;8462;53.156;8.220;2023-08-30T13:58:49;20.10;99.90
7658;DHT22;8462;53.156;8.220;2023-08-30T14:01:16;20.00;99.90
7658;DHT22;8462;53.156;8.220;2023-08-30T14:03:44;19.90;99.90
7658;DHT22;8462;53.156;8.220;2023-08-30T14:06:10;19.70;99.90
7658;DHT22;8462;53.156;8.220;2023-08-30T14:08:38;19.70;99.90
7658;DHT22;8462;53.156;8.220;2023-08-30T14:11:04;19.60;99.90
7658;DHT22;8462;53.156;8.220;2023-08-30T14:13:33;19.60;99.90
7658;DHT22;8462;53.156;8.220;2023-08-30T14:16:00;19.50;99.90
7658;DHT22;8462;53.156;8.220;2023-08-30T14:18:27;19.40;99.90
7658;DHT22;8462;53.156;8.220;2023-08-30T14:20:55;19.30;99.90
7658;DHT22;8462;53.156;8.220;2023-08-30T14:23:24;19.30;99.90
7658;DHT22;8462;53.156;8.220;2023-08-30T14:25:57;19.30;99.90
7658;DHT22;8462;53.156;8.220;2023-08-30T14:28:25;19.20;99.90
7658;DHT22;8462;53.156;8.220;2023-08-30T14:30:53;19.10;99.90
7658;DHT22;8462;53.156;8.220;2023-08-30T14:33:20;19.00;99.90
7658;DHT22;8462;53.156;8.220;2023-08-30T14:35:47;19.00;99.90
7658;DHT22;8462;53.156;8.220;2023-08-30T14:38:14;19.10;99.90
7658;DHT22;8462;53.156;8.220;2023-08-30T14:40:41;19.10;99.90
7658;DHT22;8462;53.156;8.220;2023-08-30T14:43:08;19.10;99.90
7658;DHT22;8462;53.156;8.220;2023-08-30T14:45:35;19.20;99.90
7658;DHT22;8462;53.156;8.220;2023-08-30T14:48:03;19.30;99.90
7658;DHT22;8462;53.156;8.220;2023-08-30T14:50:31;19.30;99.90
7658;DHT22;8462;53.156;8.220;2023-08-30T14:52:57;19.20;99.90
7658;DHT22;8462;53.156;8.220;2023-08-30T14:55:24;19.30;99.90
7658;DHT22;8462;53.156;8.220;2023-08-30T14:57:51;19.30;99.90
7658;DHT22;8462;53.156;8.220;2023-08-30T15:00:18;19.20;99.90
7658;DHT22;8462;53.156;8.220;2023-08-30T15:02:45;19.10;99.90
7658;DHT22;8462;53.156;8.220;2023-08-30T15:05:13;19.10;99.90
7658;DHT22;8462;53.156;8.220;2023-08-30T15:07:40;19.00;99.90
7658;DHT22;8462;53.156;8.220;2023-08-30T15:10:07;18.90;99.90
7658;DHT22;8462;53.156;8.220;2023-08-30T15:12:35;18.90;99.90
7658;DHT22;8462;53.156;8.220;2023-08-30T15:15:02;18.80;99.90
7658;DHT22;8462;53.156;8.220;2023-08-30T15:17:29;18.80;99.90
7658;DHT22;8462;53.156;8.220;2023-08-30T15:19:58;18.80;99.90
7658;DHT22;8462;53.156;8.220;2023-08-30T15:22:26;18.70;99.90
7658;DHT22;8462;53.156;8.220;2023-08-30T15:24:53;18.70;99.90
7658;DHT22;8462;53.156;8.220;2023-08-30T15:27:20;18.70;99.90
7658;DHT22;8462;53.156;8.220;2023-08-30T15:29:47;18.60;99.90
7658;DHT22;8462;53.156;8.220;2023-08-30T15:32:17;18.60;99.90
7658;DHT22;8462;53.156;8.220;2023-08-30T15:34:44;18.60;99.90
7658;DHT22;8462;53.156;8.220;2023-08-30T15:37:11;18.60;99.90
7658;DHT22;8462;53.156;8.220;2023-08-30T15:39:40;18.80;99.90
7658;DHT22;8462;53.156;8.220;2023-08-30T15:42:07;19.00;99.90
7658;DHT22;8462;53.156;8.220;2023-08-30T15:44:35;19.20;99.90
7658;DHT22;8462;53.156;8.220;2023-08-30T15:47:03;19.50;99.90
7658;DHT22;8462;53.156;8.220;2023-08-30T15:49:29;19.60;99.90
7658;DHT22;8462;53.156;8.220;2023-08-30T15:51:57;19.70;99.90
7658;DHT22;8462;53.156;8.220;2023-08-30T15:54:24;19.60;99.90
7658;DHT22;8462;53.156;8.220;2023-08-30T15:56:52;19.60;99.90
7658;DHT22;8462;53.156;8.220;2023-08-30T15:59:19;19.70;99.90
7658;DHT22;8462;53.156;8.220;2023-08-30T16:01:45;19.70;99.90
7658;DHT22;8462;53.156;8.220;2023-08-30T16:04:12;19.70;99.90
7658;DHT22;8462;53.156;8.220;2023-08-30T16:06:39;19.60;99.90
7658;DHT22;8462;53.156;8.220;2023-08-30T16:09:08;19.60;99.90